createdAt,value
2023-07-07T00:02:50.163Z,54.18
2023-07-07T00:05:57.361Z,55.09
2023-07-07T00:09:02.904Z,56.92
2023-07-07T00:12:07.128Z,57.82
2023-07-07T00:15:11.385Z,58.60
2023-07-07T00:18:15.673Z,56.85
2023-07-07T00:21:21.272Z,54.75
2023-07-07T00:24:25.554Z,53.93
2023-07-07T00:27:29.716Z,56.48
2023-07-07T00:30:35.167Z,54.83
2023-07-07T00:33:39.339Z,53.10
2023-07-07T00:36:43.279Z,54.25
2023-07-07T00:39:49.560Z,56.36
2023-07-07T00:42:53.692Z,56.79
2023-07-07T00:45:57.899Z,57.28
2023-07-07T00:49:01.764Z,54.08
2023-07-07T00:52:05.807Z,53.68
2023-07-07T00:55:10.469Z,54.31
2023-07-07T00:58:14.670Z,55.92
2023-07-07T01:01:21.044Z,56.65
2023-07-07T01:04:24.785Z,60.05
2023-07-07T01:07:33.518Z,60.63
2023-07-07T01:10:37.731Z,61.53
2023-07-07T01:13:43.205Z,61.70
2023-07-07T01:16:51.136Z,61.59
2023-07-07T01:19:55.095Z,62.96
2023-07-07T01:23:00.250Z,62.06
2023-07-07T01:26:05.841Z,60.24
2023-07-07T01:29:11.065Z,61.22
2023-07-07T01:32:15.134Z,61.14
2023-07-07T01:35:19.362Z,61.41
2023-07-07T01:38:23.272Z,60.15
2023-07-07T01:41:29.113Z,59.94
2023-07-07T01:44:33.619Z,59.50
2023-07-07T01:47:38.016Z,57.61
2023-07-07T01:50:46.470Z,56.53
2023-07-07T01:53:50.791Z,55.93
2023-07-07T01:56:56.859Z,55.65
2023-07-07T02:00:01.120Z,57.00
2023-07-07T02:03:05.474Z,58.22
2023-07-07T02:06:09.541Z,57.83
2023-07-07T02:09:13.450Z,59.21
2023-07-07T02:12:17.475Z,58.96
2023-07-07T02:15:22.920Z,59.39
2023-07-07T02:18:33.267Z,59.54
2023-07-07T02:21:37.392Z,59.19
2023-07-07T02:24:41.798Z,59.41
2023-07-07T02:27:45.843Z,58.72
2023-07-07T02:30:49.585Z,58.59
2023-07-07T02:33:55.754Z,60.21
2023-07-07T02:37:01.193Z,61.02
2023-07-07T02:40:05.587Z,59.20
2023-07-07T02:43:14.126Z,56.89
2023-07-07T02:46:20.611Z,55.09
2023-07-07T02:49:29.087Z,56.04
2023-07-07T02:52:34.347Z,56.38
2023-07-07T02:55:38.410Z,55.85
2023-07-07T02:58:42.001Z,54.34
2023-07-07T03:01:47.972Z,53.61
2023-07-07T03:04:52.276Z,55.42
2023-07-07T03:07:56.345Z,55.59
2023-07-07T03:11:01.209Z,56.78
2023-07-07T03:14:05.471Z,57.14
2023-07-07T03:17:09.928Z,56.51
2023-07-07T03:20:15.791Z,56.43
2023-07-07T03:23:21.434Z,57.31
2023-07-07T03:26:25.604Z,56.96
2023-07-07T03:29:29.330Z,56.99
2023-07-07T03:32:33.497Z,56.91
2023-07-07T03:35:37.656Z,57.03
2023-07-07T03:38:41.572Z,57.51
2023-07-07T03:41:45.636Z,56.93
2023-07-07T03:44:49.920Z,56.61
2023-07-07T03:47:53.894Z,56.74
2023-07-07T03:50:58.627Z,57.49
2023-07-07T03:54:02.754Z,58.63
2023-07-07T03:57:06.702Z,57.64
2023-07-07T04:00:10.452Z,58.40
2023-07-07T04:03:15.215Z,57.64
2023-07-07T04:06:20.700Z,57.71
2023-07-07T04:09:47.739Z,56.81
2023-07-07T04:12:49.971Z,56.17
2023-07-07T04:15:53.873Z,56.40
2023-07-07T04:22:26.894Z,55.16
2023-07-07T04:25:31.946Z,54.38
2023-07-07T04:28:38.143Z,53.32
2023-07-07T04:31:42.308Z,54.28
2023-07-07T04:34:46.820Z,54.68
2023-07-07T04:37:52.589Z,55.12
2023-07-07T04:40:57.235Z,54.67
2023-07-07T04:44:14.518Z,52.67
2023-07-07T04:47:20.573Z,51.31
2023-07-07T04:50:24.674Z,51.91
2023-07-07T04:53:28.877Z,50.84
2023-07-07T04:56:34.126Z,49.82
2023-07-07T04:59:45.774Z,49.12
2023-07-07T05:02:51.880Z,50.16
2023-07-07T05:05:56.135Z,49.20
2023-07-07T05:09:02.127Z,48.68
2023-07-07T05:12:06.317Z,48.50
2023-07-07T05:15:15.155Z,49.55
2023-07-07T05:18:21.215Z,49.62
2023-07-07T05:21:29.022Z,49.90
2023-07-07T05:24:58.738Z,50.23
2023-07-07T05:28:01.077Z,51.19
2023-07-07T05:31:18.404Z,52.71
2023-07-07T05:34:28.318Z,52.43
2023-07-07T05:37:32.673Z,52.01
2023-07-07T05:40:37.116Z,52.66
2023-07-07T05:43:42.877Z,52.97
2023-07-07T05:46:47.250Z,52.81
2023-07-07T05:49:51.671Z,52.37
2023-07-07T05:52:55.768Z,50.85
2023-07-07T05:55:59.527Z,47.48
2023-07-07T05:59:03.559Z,47.13
2023-07-07T06:05:31.748Z,48.11
2023-07-07T06:08:39.089Z,48.99
2023-07-07T06:11:42.941Z,47.02
2023-07-07T06:14:46.983Z,45.23
2023-07-07T06:17:51.691Z,45.93
2023-07-07T06:20:57.684Z,43.86
2023-07-07T06:24:02.264Z,41.25
2023-07-07T06:27:06.608Z,43.25
2023-07-07T06:30:13.922Z,40.64
2023-07-07T06:33:20.922Z,39.81
2023-07-07T06:36:25.505Z,40.76
2023-07-07T06:39:31.984Z,39.83
2023-07-07T06:42:36.030Z,40.66
2023-07-07T06:45:40.531Z,39.62
2023-07-07T06:48:46.889Z,40.32
2023-07-07T06:51:51.264Z,44.99
2023-07-07T06:55:09.741Z,42.58
2023-07-07T06:58:14.281Z,42.40
2023-07-07T07:01:20.013Z,41.84
2023-07-07T07:05:11.225Z,44.59
2023-07-07T07:08:00.266Z,42.86
2023-07-07T07:11:04.456Z,42.66
2023-07-07T07:14:10.786Z,45.70
2023-07-07T07:17:15.244Z,44.14
2023-07-07T07:20:28.755Z,44.63
2023-07-07T07:23:37.781Z,46.81
2023-07-07T07:26:54.648Z,45.83
2023-07-07T07:34:12.157Z,45.31
2023-07-07T07:36:48.187Z,45.42
2023-07-07T07:39:53.875Z,48.38
2023-07-07T07:43:01.263Z,49.50
2023-07-07T07:45:21.543Z,46.13
2023-07-07T07:46:09.229Z,48.93
2023-07-07T07:49:22.107Z,48.07
2023-07-07T07:52:37.885Z,50.18
2023-07-07T07:56:05.923Z,50.16
2023-07-07T07:59:12.383Z,50.61
2023-07-07T08:02:26.995Z,49.08
2023-07-07T08:05:31.218Z,48.96
2023-07-07T08:08:35.124Z,48.89
2023-07-07T08:11:39.186Z,50.20
2023-07-07T08:14:43.572Z,50.60
2023-07-07T08:17:48.669Z,52.19
2023-07-07T08:20:53.086Z,52.06
2023-07-07T08:23:57.217Z,50.64
2023-07-07T08:27:38.178Z,51.43
2023-07-07T08:30:25.407Z,52.09
2023-07-07T08:33:29.664Z,53.31
2023-07-07T08:36:33.557Z,53.66
2023-07-07T08:39:37.565Z,52.91
2023-07-07T08:42:41.577Z,51.84
2023-07-07T08:45:45.595Z,51.66
2023-07-07T08:48:49.612Z,52.68
2023-07-07T08:51:53.503Z,50.85
2023-07-07T08:54:57.774Z,49.58
2023-07-07T08:58:02.077Z,48.22
2023-07-07T09:01:06.399Z,48.53
2023-07-07T09:04:10.747Z,46.51
2023-07-07T09:07:15.095Z,47.95
2023-07-07T09:10:18.697Z,48.85
2023-07-07T09:13:22.799Z,47.85
2023-07-07T09:16:26.913Z,50.18
2023-07-07T09:19:31.059Z,51.70
2023-07-07T09:22:35.434Z,50.76
2023-07-07T09:25:49.620Z,49.90
2023-07-07T09:28:54.449Z,52.12
2023-07-07T09:31:58.527Z,50.39
2023-07-07T09:38:24.653Z,47.25
2023-07-07T09:41:28.757Z,47.27
2023-07-07T09:44:32.963Z,46.39
2023-07-07T09:47:38.594Z,44.73
2023-07-07T09:50:44.601Z,46.73
2023-07-07T09:53:48.635Z,49.00
2023-07-07T09:56:52.498Z,49.74
2023-07-07T09:59:56.772Z,49.84
2023-07-07T10:03:00.745Z,47.45
2023-07-07T10:06:05.108Z,45.50
2023-07-07T10:09:09.371Z,42.86
2023-07-07T10:12:23.793Z,44.30
2023-07-07T10:15:30.293Z,43.32
2023-07-07T10:18:45.140Z,43.57
2023-07-07T10:21:57.050Z,42.90
2023-07-07T10:25:00.815Z,42.22
2023-07-07T10:28:14.230Z,41.23
2023-07-07T10:31:18.305Z,41.92
2023-07-07T10:34:22.940Z,43.00
2023-07-07T10:37:27.473Z,44.57
2023-07-07T10:40:31.539Z,41.71
2023-07-07T10:43:35.643Z,42.26
2023-07-07T10:46:39.305Z,39.31
2023-07-07T10:49:43.318Z,45.11
2023-07-07T10:55:55.947Z,41.80
2023-07-07T10:59:00.118Z,38.87
2023-07-07T11:02:04.111Z,38.53
2023-07-07T11:05:08.742Z,38.85
2023-07-07T11:08:12.723Z,40.25
2023-07-07T11:11:16.641Z,38.50
2023-07-07T11:14:20.790Z,39.24
2023-07-07T11:17:24.736Z,38.58
2023-07-07T11:20:29.877Z,38.51
2023-07-07T11:23:34.101Z,38.19
2023-07-07T11:26:38.560Z,39.84
2023-07-07T11:29:42.777Z,40.23
2023-07-07T11:32:46.840Z,40.62
2023-07-07T11:35:50.589Z,40.04
2023-07-07T11:38:54.630Z,44.13
2023-07-07T11:41:58.804Z,42.05
2023-07-07T11:45:03.017Z,42.17
2023-07-07T11:48:07.074Z,41.65
2023-07-07T11:51:11.466Z,40.37
2023-07-07T11:54:17.814Z,41.72
2023-07-07T11:57:22.144Z,41.78
2023-07-07T12:00:27.036Z,41.73
2023-07-07T12:03:31.037Z,41.99
2023-07-07T12:06:35.400Z,44.05
2023-07-07T12:09:39.768Z,43.23
2023-07-07T12:12:43.808Z,42.19
2023-07-07T12:15:47.669Z,41.55
2023-07-07T12:18:53.470Z,40.29
2023-07-07T12:21:57.279Z,41.82
2023-07-07T12:25:01.607Z,42.65
2023-07-07T12:28:05.571Z,41.43
2023-07-07T12:31:09.889Z,37.81
2023-07-07T12:34:13.733Z,38.08
2023-07-07T12:37:17.843Z,36.13
2023-07-07T12:40:30.770Z,37.92
2023-07-07T12:43:34.858Z,40.89
2023-07-07T12:46:40.615Z,38.14
2023-07-07T12:49:44.422Z,40.82
2023-07-07T12:52:48.390Z,38.58
2023-07-07T12:55:52.869Z,37.27
2023-07-07T12:58:56.712Z,36.80
2023-07-07T13:02:00.701Z,38.91
2023-07-07T13:05:04.794Z,37.39
2023-07-07T13:08:09.290Z,36.74
2023-07-07T13:11:13.196Z,38.04
2023-07-07T13:14:17.318Z,36.57
2023-07-07T13:17:22.132Z,36.08
2023-07-07T13:20:26.255Z,36.04
2023-07-07T13:23:30.635Z,36.50
2023-07-07T13:26:34.735Z,34.54
2023-07-07T13:29:43.281Z,35.00
2023-07-07T13:32:48.856Z,34.60
2023-07-07T13:35:52.900Z,34.85
2023-07-07T13:38:57.301Z,34.89
2023-07-07T13:42:01.575Z,35.21
2023-07-07T13:45:05.266Z,34.71
2023-07-07T13:48:10.864Z,34.79
2023-07-07T13:51:14.799Z,34.54
2023-07-07T13:54:18.562Z,35.04
2023-07-07T13:57:22.702Z,33.26
2023-07-07T14:00:26.820Z,34.40
2023-07-07T14:03:30.873Z,35.27
2023-07-07T14:06:35.327Z,35.12
2023-07-07T14:09:39.457Z,32.98
2023-07-07T14:12:43.449Z,34.51
2023-07-07T14:15:47.348Z,34.58
2023-07-07T14:18:51.498Z,34.22
2023-07-07T14:21:55.442Z,32.68
2023-07-07T14:24:59.338Z,32.79
2023-07-07T14:28:03.289Z,32.01
2023-07-07T14:31:07.644Z,33.79
2023-07-07T14:34:11.582Z,31.18
2023-07-07T14:37:15.804Z,29.40
2023-07-07T14:40:19.659Z,29.80
2023-07-07T14:43:24.107Z,30.09
2023-07-07T14:46:31.566Z,30.99
2023-07-07T14:49:35.802Z,31.55
2023-07-07T14:52:39.840Z,32.08
2023-07-07T14:55:43.785Z,31.98
2023-07-07T14:58:47.902Z,34.20
2023-07-07T15:01:51.968Z,31.78
2023-07-07T15:04:56.023Z,31.85
2023-07-07T15:07:59.831Z,33.08
2023-07-07T15:11:04.227Z,29.78
2023-07-07T15:14:08.611Z,29.93
2023-07-07T15:17:12.524Z,28.00
2023-07-07T15:20:16.492Z,31.01
2023-07-07T15:23:20.689Z,30.93
2023-07-07T15:29:47.591Z,34.34
2023-07-07T15:32:51.598Z,34.50
2023-07-07T15:35:55.478Z,38.60
2023-07-07T15:38:59.700Z,38.06
2023-07-07T15:42:04.128Z,35.69
2023-07-07T15:45:08.104Z,40.48
2023-07-07T15:48:13.693Z,39.37
2023-07-07T15:51:18.675Z,38.95
2023-07-07T15:54:22.610Z,40.03
2023-07-07T15:57:26.796Z,43.30
2023-07-07T16:00:30.721Z,38.54
2023-07-07T16:03:39.256Z,41.11
2023-07-07T16:06:43.314Z,42.62
2023-07-07T16:09:47.529Z,40.39
2023-07-07T16:12:56.009Z,37.04
2023-07-07T16:16:00.410Z,31.87
2023-07-07T16:19:04.939Z,33.63
2023-07-07T16:22:09.469Z,35.92
2023-07-07T16:25:13.284Z,37.98
2023-07-07T16:28:17.398Z,37.77
2023-07-07T16:31:21.797Z,35.70
2023-07-07T16:34:25.645Z,35.62
2023-07-07T16:40:51.595Z,34.89
2023-07-07T16:43:55.614Z,32.95
2023-07-07T16:46:59.563Z,32.58
2023-07-07T16:50:03.508Z,31.72
2023-07-07T16:53:08.819Z,33.21
2023-07-07T16:56:22.172Z,32.80
2023-07-07T16:59:26.501Z,33.64
2023-07-07T17:02:30.725Z,32.88
2023-07-07T17:09:00.061Z,32.99
2023-07-07T17:12:04.833Z,33.03
2023-07-07T17:15:08.752Z,29.53
2023-07-07T17:18:12.874Z,30.91
2023-07-07T17:21:16.824Z,30.84
2023-07-07T17:24:20.959Z,27.76
2023-07-07T17:27:25.048Z,29.09
2023-07-07T17:30:29.276Z,31.16
2023-07-07T17:33:33.263Z,32.34
2023-07-07T17:36:38.752Z,32.71
2023-07-07T17:39:43.012Z,33.87
2023-07-07T17:42:46.888Z,34.89
2023-07-07T17:45:50.708Z,33.92
2023-07-07T17:48:55.012Z,35.31
2023-07-07T17:51:59.100Z,35.77
2023-07-07T17:55:03.219Z,34.68
2023-07-07T17:58:07.113Z,35.85
2023-07-07T18:01:11.184Z,35.62
2023-07-07T18:04:16.649Z,36.04
2023-07-07T18:07:20.801Z,36.29
2023-07-07T18:10:24.995Z,34.97
2023-07-07T18:17:03.412Z,33.70
2023-07-07T18:20:29.413Z,33.97
2023-07-07T18:23:38.786Z,36.14
2023-07-07T18:26:44.402Z,36.60
2023-07-07T18:29:50.701Z,37.04
2023-07-07T18:32:54.870Z,37.67
2023-07-07T18:35:59.011Z,38.61
2023-07-07T18:39:03.083Z,39.33
2023-07-07T18:42:07.107Z,39.97
2023-07-07T18:45:10.877Z,41.30
2023-07-07T18:48:15.132Z,42.03
2023-07-07T18:51:19.565Z,42.50
2023-07-07T18:54:23.558Z,43.63
2023-07-07T18:57:27.445Z,42.23
2023-07-07T19:00:31.458Z,44.14
2023-07-07T19:03:35.551Z,44.73
2023-07-07T19:06:39.826Z,44.11
2023-07-07T19:09:43.746Z,44.04
2023-07-07T19:12:47.881Z,46.09
2023-07-07T19:15:52.168Z,46.78
2023-07-07T19:18:56.020Z,45.34
2023-07-07T19:22:00.153Z,43.61
2023-07-07T19:25:03.887Z,46.29
2023-07-07T19:28:09.410Z,46.87
2023-07-07T19:31:13.703Z,46.49
2023-07-07T19:34:17.741Z,48.46
2023-07-07T19:37:21.825Z,48.92
2023-07-07T19:40:25.659Z,49.45
2023-07-07T19:43:29.822Z,46.78
2023-07-07T19:49:55.801Z,47.59
2023-07-07T19:52:59.933Z,48.37
2023-07-07T19:56:03.960Z,46.73
2023-07-07T19:59:08.126Z,44.65
2023-07-07T20:02:12.300Z,43.24
2023-07-07T20:05:16.341Z,43.62
2023-07-07T20:08:20.069Z,44.07
2023-07-07T20:11:23.982Z,45.62
2023-07-07T20:14:28.036Z,43.88
2023-07-07T20:17:32.081Z,42.27
2023-07-07T20:20:39.079Z,42.38
2023-07-07T20:23:42.989Z,41.95
2023-07-07T20:26:48.027Z,43.03
2023-07-07T20:29:52.871Z,44.16
2023-07-07T20:32:56.778Z,45.27
2023-07-07T20:36:00.969Z,44.74
2023-07-07T20:39:05.285Z,46.19
2023-07-07T20:42:09.226Z,44.48
2023-07-07T20:45:13.296Z,45.76
2023-07-07T20:48:17.530Z,46.23
2023-07-07T20:51:21.532Z,43.34
2023-07-07T20:54:25.352Z,45.21
2023-07-07T20:57:28.898Z,45.12
2023-07-07T21:00:33.149Z,45.33
2023-07-07T21:03:37.183Z,43.79
2023-07-07T21:06:40.998Z,45.22
2023-07-07T21:09:44.935Z,45.98
2023-07-07T21:12:48.907Z,46.52
2023-07-07T21:15:55.369Z,47.46
2023-07-07T21:18:59.476Z,47.29
2023-07-07T21:22:03.361Z,45.34
2023-07-07T21:25:07.357Z,45.83
2023-07-07T21:28:11.304Z,46.72
2023-07-07T21:31:15.490Z,47.39
2023-07-07T21:34:19.396Z,44.78
2023-07-07T21:37:23.461Z,45.81
2023-07-07T21:40:27.410Z,46.28
2023-07-07T21:43:31.525Z,43.88
2023-07-07T21:46:36.467Z,46.07
2023-07-07T21:49:40.767Z,44.28
2023-07-07T21:52:44.531Z,44.12
2023-07-07T21:55:48.424Z,46.65
2023-07-07T21:58:52.488Z,47.29
2023-07-07T22:01:56.549Z,48.18
2023-07-07T22:05:01.444Z,47.18
2023-07-07T22:08:05.601Z,49.66
2023-07-07T22:11:09.491Z,49.78
2023-07-07T22:14:14.024Z,46.95
2023-07-07T22:17:18.405Z,48.98
2023-07-07T22:20:22.152Z,47.54
2023-07-07T22:23:26.254Z,48.63
2023-07-07T22:26:30.152Z,49.19
2023-07-07T22:29:33.771Z,49.57
2023-07-07T22:32:38.248Z,50.43
2023-07-07T22:35:42.332Z,50.91
2023-07-07T22:38:46.464Z,52.10
2023-07-07T22:41:50.845Z,51.67
2023-07-07T22:44:54.921Z,51.54
2023-07-07T22:47:59.007Z,52.02
2023-07-07T22:51:02.887Z,53.53
2023-07-07T22:54:06.710Z,53.27
2023-07-07T22:57:10.618Z,50.50
2023-07-07T23:00:14.642Z,49.96
2023-07-07T23:03:18.584Z,48.57
2023-07-07T23:06:22.689Z,49.59
2023-07-07T23:09:26.768Z,47.81
2023-07-07T23:12:30.900Z,49.59
2023-07-07T23:15:34.793Z,50.05
2023-07-07T23:18:40.756Z,49.81
2023-07-07T23:21:44.889Z,49.73
2023-07-07T23:24:49.101Z,48.17
2023-07-07T23:27:53.091Z,49.53
2023-07-07T23:30:57.195Z,51.48
2023-07-07T23:34:01.106Z,49.60
2023-07-07T23:37:05.323Z,50.21
2023-07-07T23:40:09.184Z,49.89
2023-07-07T23:43:13.224Z,49.00
2023-07-07T23:46:19.162Z,49.57
2023-07-07T23:49:23.302Z,51.47
2023-07-07T23:52:27.435Z,51.26
2023-07-07T23:55:31.534Z,53.30
2023-07-07T23:58:35.515Z,50.59
